sensor_id;sensor_type;location;lat;lon;timestamp;P1;durP1;ratioP1;P2;durP2;ratioP2
43487;SDS011;29078;41.932;25.554;2022-07-01T00:01:19;3.30;;;2.35;;
43487;SDS011;29078;41.932;25.554;2022-07-01T00:03:44;2.33;;;2.00;;
43487;SDS011;29078;41.932;25.554;2022-07-01T00:06:17;4.13;;;2.40;;
43487;SDS011;29078;41.932;25.554;2022-07-01T00:08:43;4.95;;;2.42;;
43487;SDS011;29078;41.932;25.554;2022-07-01T00:11:08;3.47;;;2.35;;
43487;SDS011;29078;41.932;25.554;2022-07-01T00:13:33;5.10;;;2.60;;
43487;SDS011;29078;41.932;25.554;2022-07-01T00:15:59;4.35;;;2.55;;
43487;SDS011;29078;41.932;25.554;2022-07-01T00:18:25;5.50;;;2.33;;
43487;SDS011;29078;41.932;25.554;2022-07-01T00:20:50;4.10;;;2.33;;
43487;SDS011;29078;41.932;25.554;2022-07-01T00:23:16;7.43;;;2.70;;
43487;SDS011;29078;41.932;25.554;2022-07-01T00:25:43;2.90;;;2.60;;
43487;SDS011;29078;41.932;25.554;2022-07-01T00:28:09;5.55;;;2.42;;
43487;SDS011;29078;41.932;25.554;2022-07-01T00:30:34;6.35;;;2.53;;
43487;SDS011;29078;41.932;25.554;2022-07-01T00:33:00;3.95;;;2.67;;
43487;SDS011;29078;41.932;25.554;2022-07-01T00:35:25;3.00;;;2.53;;
43487;SDS011;29078;41.932;25.554;2022-07-01T00:37:51;3.58;;;2.58;;
43487;SDS011;29078;41.932;25.554;2022-07-01T00:40:16;4.55;;;2.05;;
43487;SDS011;29078;41.932;25.554;2022-07-01T00:42:41;5.22;;;3.13;;
43487;SDS011;29078;41.932;25.554;2022-07-01T00:45:08;3.30;;;2.55;;
43487;SDS011;29078;41.932;25.554;2022-07-01T00:47:35;3.50;;;2.47;;
43487;SDS011;29078;41.932;25.554;2022-07-01T00:50:03;4.45;;;2.15;;
43487;SDS011;29078;41.932;25.554;2022-07-01T00:52:32;4.37;;;2.70;;
43487;SDS011;29078;41.932;25.554;2022-07-01T00:54:57;5.28;;;2.60;;
43487;SDS011;29078;41.932;25.554;2022-07-01T00:57:24;4.38;;;2.30;;
43487;SDS011;29078;41.932;25.554;2022-07-01T00:59:55;3.80;;;2.40;;
43487;SDS011;29078;41.932;25.554;2022-07-01T01:02:20;5.30;;;2.28;;
43487;SDS011;29078;41.932;25.554;2022-07-01T01:04:46;4.57;;;2.55;;
43487;SDS011;29078;41.932;25.554;2022-07-01T01:07:12;4.22;;;2.55;;
43487;SDS011;29078;41.932;25.554;2022-07-01T01:09:39;5.07;;;2.53;;
43487;SDS011;29078;41.932;25.554;2022-07-01T01:12:05;4.65;;;2.70;;
43487;SDS011;29078;41.932;25.554;2022-07-01T01:14:42;5.25;;;2.40;;
43487;SDS011;29078;41.932;25.554;2022-07-01T01:17:09;3.58;;;2.28;;
43487;SDS011;29078;41.932;25.554;2022-07-01T01:19:34;3.78;;;2.63;;
43487;SDS011;29078;41.932;25.554;2022-07-01T01:21:59;2.97;;;2.50;;
43487;SDS011;29078;41.932;25.554;2022-07-01T01:24:25;3.33;;;2.65;;
43487;SDS011;29078;41.932;25.554;2022-07-01T01:26:50;5.85;;;2.50;;
43487;SDS011;29078;41.932;25.554;2022-07-01T01:29:16;2.53;;;2.33;;
43487;SDS011;29078;41.932;25.554;2022-07-01T01:31:41;3.13;;;2.40;;
43487;SDS011;29078;41.932;25.554;2022-07-01T01:34:06;5.70;;;2.58;;
43487;SDS011;29078;41.932;25.554;2022-07-01T01:36:32;3.75;;;2.22;;
43487;SDS011;29078;41.932;25.554;2022-07-01T01:38:57;4.22;;;2.30;;
43487;SDS011;29078;41.932;25.554;2022-07-01T01:41:52;4.53;;;2.33;;
43487;SDS011;29078;41.932;25.554;2022-07-01T01:44:17;3.20;;;2.22;;
43487;SDS011;29078;41.932;25.554;2022-07-01T01:46:43;3.22;;;2.33;;
43487;SDS011;29078;41.932;25.554;2022-07-01T01:49:09;3.47;;;2.45;;
43487;SDS011;29078;41.932;25.554;2022-07-01T01:51:35;3.90;;;2.50;;
43487;SDS011;29078;41.932;25.554;2022-07-01T01:54:00;4.95;;;2.60;;
43487;SDS011;29078;41.932;25.554;2022-07-01T01:56:26;3.45;;;2.30;;
43487;SDS011;29078;41.932;25.554;2022-07-01T01:58:52;6.32;;;2.22;;
43487;SDS011;29078;41.932;25.554;2022-07-01T02:01:18;5.03;;;2.40;;
43487;SDS011;29078;41.932;25.554;2022-07-01T02:03:44;2.53;;;2.22;;
43487;SDS011;29078;41.932;25.554;2022-07-01T02:06:12;4.28;;;2.67;;
43487;SDS011;29078;41.932;25.554;2022-07-01T02:08:39;5.07;;;2.78;;
43487;SDS011;29078;41.932;25.554;2022-07-01T02:11:05;7.43;;;2.40;;
43487;SDS011;29078;41.932;25.554;2022-07-01T02:13:32;3.85;;;2.17;;
43487;SDS011;29078;41.932;25.554;2022-07-01T02:15:57;4.10;;;2.33;;
43487;SDS011;29078;41.932;25.554;2022-07-01T02:18:23;4.57;;;2.45;;
43487;SDS011;29078;41.932;25.554;2022-07-01T02:20:49;3.00;;;2.30;;
43487;SDS011;29078;41.932;25.554;2022-07-01T02:23:14;5.00;;;2.28;;
43487;SDS011;29078;41.932;25.554;2022-07-01T02:25:40;4.55;;;2.95;;
43487;SDS011;29078;41.932;25.554;2022-07-01T02:28:06;3.50;;;1.95;;
43487;SDS011;29078;41.932;25.554;2022-07-01T02:30:32;5.70;;;2.40;;
43487;SDS011;29078;41.932;25.554;2022-07-01T02:33:02;4.72;;;2.30;;
43487;SDS011;29078;41.932;25.554;2022-07-01T02:35:34;5.45;;;2.55;;
43487;SDS011;29078;41.932;25.554;2022-07-01T02:38:01;4.40;;;2.40;;
43487;SDS011;29078;41.932;25.554;2022-07-01T02:40:27;6.78;;;2.40;;
43487;SDS011;29078;41.932;25.554;2022-07-01T02:42:53;4.65;;;2.55;;
43487;SDS011;29078;41.932;25.554;2022-07-01T02:45:18;4.57;;;2.40;;
43487;SDS011;29078;41.932;25.554;2022-07-01T02:47:44;4.93;;;2.50;;
43487;SDS011;29078;41.932;25.554;2022-07-01T02:50:12;6.03;;;2.35;;
43487;SDS011;29078;41.932;25.554;2022-07-01T02:52:39;4.53;;;2.22;;
43487;SDS011;29078;41.932;25.554;2022-07-01T02:55:07;3.20;;;2.33;;
43487;SDS011;29078;41.932;25.554;2022-07-01T02:57:34;3.97;;;2.20;;
43487;SDS011;29078;41.932;25.554;2022-07-01T03:00:00;4.38;;;2.45;;
43487;SDS011;29078;41.932;25.554;2022-07-01T03:02:26;5.43;;;2.97;;
43487;SDS011;29078;41.932;25.554;2022-07-01T03:04:52;3.22;;;2.50;;
43487;SDS011;29078;41.932;25.554;2022-07-01T03:07:18;4.25;;;2.50;;
43487;SDS011;29078;41.932;25.554;2022-07-01T03:09:44;4.50;;;2.60;;
43487;SDS011;29078;41.932;25.554;2022-07-01T03:12:11;5.15;;;2.80;;
43487;SDS011;29078;41.932;25.554;2022-07-01T03:14:50;4.95;;;2.80;;
43487;SDS011;29078;41.932;25.554;2022-07-01T03:17:25;5.20;;;3.08;;
43487;SDS011;29078;41.932;25.554;2022-07-01T03:19:52;4.70;;;2.70;;
43487;SDS011;29078;41.932;25.554;2022-07-01T03:22:22;3.88;;;3.28;;
43487;SDS011;29078;41.932;25.554;2022-07-01T03:24:49;4.65;;;2.95;;
43487;SDS011;29078;41.932;25.554;2022-07-01T03:27:16;4.80;;;2.90;;
43487;SDS011;29078;41.932;25.554;2022-07-01T03:29:43;5.18;;;3.08;;
43487;SDS011;29078;41.932;25.554;2022-07-01T03:32:09;5.25;;;3.10;;
43487;SDS011;29078;41.932;25.554;2022-07-01T03:34:35;4.93;;;3.65;;
43487;SDS011;29078;41.932;25.554;2022-07-01T03:37:05;4.85;;;3.10;;
43487;SDS011;29078;41.932;25.554;2022-07-01T03:39:32;7.55;;;3.25;;
43487;SDS011;29078;41.932;25.554;2022-07-01T03:41:58;10.75;;;3.92;;
43487;SDS011;29078;41.932;25.554;2022-07-01T03:44:24;8.93;;;3.53;;
43487;SDS011;29078;41.932;25.554;2022-07-01T03:46:49;3.33;;;2.90;;
43487;SDS011;29078;41.932;25.554;2022-07-01T03:49:15;5.55;;;3.50;;
43487;SDS011;29078;41.932;25.554;2022-07-01T03:51:40;4.80;;;2.97;;
43487;SDS011;29078;41.932;25.554;2022-07-01T03:54:06;6.60;;;3.72;;
43487;SDS011;29078;41.932;25.554;2022-07-01T03:56:50;7.82;;;3.40;;
43487;SDS011;29078;41.932;25.554;2022-07-01T03:59:15;5.93;;;3.53;;
43487;SDS011;29078;41.932;25.554;2022-07-01T04:01:41;5.80;;;3.53;;
43487;SDS011;29078;41.932;25.554;2022-07-01T04:04:06;5.07;;;3.22;;
43487;SDS011;29078;41.932;25.554;2022-07-01T04:06:32;4.43;;;2.95;;
43487;SDS011;29078;41.932;25.554;2022-07-01T04:08:57;7.18;;;3.22;;
43487;SDS011;29078;41.932;25.554;2022-07-01T04:11:22;5.43;;;3.47;;
43487;SDS011;29078;41.932;25.554;2022-07-01T04:13:48;6.30;;;3.35;;
43487;SDS011;29078;41.932;25.554;2022-07-01T04:16:17;5.97;;;3.45;;
43487;SDS011;29078;41.932;25.554;2022-07-01T04:18:43;4.22;;;2.80;;
43487;SDS011;29078;41.932;25.554;2022-07-01T04:21:09;4.40;;;3.40;;
43487;SDS011;29078;41.932;25.554;2022-07-01T04:23:53;7.63;;;3.70;;
43487;SDS011;29078;41.932;25.554;2022-07-01T04:26:19;5.10;;;3.47;;
43487;SDS011;29078;41.932;25.554;2022-07-01T04:28:44;7.40;;;2.90;;
43487;SDS011;29078;41.932;25.554;2022-07-01T04:31:10;10.55;;;2.97;;
43487;SDS011;29078;41.932;25.554;2022-07-01T04:33:35;5.25;;;3.13;;
43487;SDS011;29078;41.932;25.554;2022-07-01T04:36:00;4.43;;;2.92;;
43487;SDS011;29078;41.932;25.554;2022-07-01T04:38:26;3.72;;;2.63;;
43487;SDS011;29078;41.932;25.554;2022-07-01T04:40:52;4.75;;;2.95;;
43487;SDS011;29078;41.932;25.554;2022-07-01T04:43:36;10.57;;;3.50;;
43487;SDS011;29078;41.932;25.554;2022-07-01T04:46:01;6.72;;;3.30;;
43487;SDS011;29078;41.932;25.554;2022-07-01T04:48:27;5.40;;;3.15;;
43487;SDS011;29078;41.932;25.554;2022-07-01T04:50:52;5.53;;;3.08;;
43487;SDS011;29078;41.932;25.554;2022-07-01T04:53:17;7.53;;;3.40;;
43487;SDS011;29078;41.932;25.554;2022-07-01T04:55:43;4.72;;;3.78;;
43487;SDS011;29078;41.932;25.554;2022-07-01T04:58:08;7.75;;;3.75;;
43487;SDS011;29078;41.932;25.554;2022-07-01T05:00:34;4.22;;;2.75;;
43487;SDS011;29078;41.932;25.554;2022-07-01T05:02:59;5.82;;;3.60;;
43487;SDS011;29078;41.932;25.554;2022-07-01T05:05:24;5.60;;;3.20;;
43487;SDS011;29078;41.932;25.554;2022-07-01T05:07:50;5.25;;;3.47;;
43487;SDS011;29078;41.932;25.554;2022-07-01T05:10:15;6.30;;;3.13;;
43487;SDS011;29078;41.932;25.554;2022-07-01T05:12:41;5.65;;;3.72;;
43487;SDS011;29078;41.932;25.554;2022-07-01T05:15:06;5.65;;;3.20;;
43487;SDS011;29078;41.932;25.554;2022-07-01T05:17:33;6.25;;;4.65;;
43487;SDS011;29078;41.932;25.554;2022-07-01T05:20:17;4.50;;;3.60;;
43487;SDS011;29078;41.932;25.554;2022-07-01T05:23:01;7.40;;;3.88;;
43487;SDS011;29078;41.932;25.554;2022-07-01T05:25:27;6.28;;;3.85;;
43487;SDS011;29078;41.932;25.554;2022-07-01T05:27:52;9.50;;;4.97;;
43487;SDS011;29078;41.932;25.554;2022-07-01T05:30:19;7.10;;;3.90;;
43487;SDS011;29078;41.932;25.554;2022-07-01T05:32:45;4.97;;;4.30;;
43487;SDS011;29078;41.932;25.554;2022-07-01T05:35:10;7.25;;;3.55;;
43487;SDS011;29078;41.932;25.554;2022-07-01T05:37:37;6.25;;;3.60;;
43487;SDS011;29078;41.932;25.554;2022-07-01T05:40:02;6.80;;;3.42;;
43487;SDS011;29078;41.932;25.554;2022-07-01T05:42:28;6.20;;;3.80;;
43487;SDS011;29078;41.932;25.554;2022-07-01T05:44:53;5.20;;;3.75;;
43487;SDS011;29078;41.932;25.554;2022-07-01T05:47:19;7.35;;;4.95;;
43487;SDS011;29078;41.932;25.554;2022-07-01T05:49:44;7.07;;;4.28;;
43487;SDS011;29078;41.932;25.554;2022-07-01T05:52:10;7.88;;;4.15;;
43487;SDS011;29078;41.932;25.554;2022-07-01T05:54:35;6.40;;;3.75;;
43487;SDS011;29078;41.932;25.554;2022-07-01T05:57:00;4.20;;;3.78;;
43487;SDS011;29078;41.932;25.554;2022-07-01T05:59:26;6.75;;;3.70;;
43487;SDS011;29078;41.932;25.554;2022-07-01T06:01:51;7.20;;;3.67;;
43487;SDS011;29078;41.932;25.554;2022-07-01T06:04:17;8.07;;;4.03;;
43487;SDS011;29078;41.932;25.554;2022-07-01T06:06:42;6.13;;;4.30;;
43487;SDS011;29078;41.932;25.554;2022-07-01T06:09:07;5.47;;;3.58;;
43487;SDS011;29078;41.932;25.554;2022-07-01T06:11:33;8.25;;;4.43;;
43487;SDS011;29078;41.932;25.554;2022-07-01T06:13:58;7.57;;;4.78;;
43487;SDS011;29078;41.932;25.554;2022-07-01T06:16:24;7.10;;;3.90;;
43487;SDS011;29078;41.932;25.554;2022-07-01T06:18:50;5.30;;;4.20;;
43487;SDS011;29078;41.932;25.554;2022-07-01T06:21:15;8.77;;;3.90;;
43487;SDS011;29078;41.932;25.554;2022-07-01T06:23:42;5.00;;;3.78;;
43487;SDS011;29078;41.932;25.554;2022-07-01T06:26:07;4.88;;;4.07;;
43487;SDS011;29078;41.932;25.554;2022-07-01T06:28:33;5.53;;;3.90;;
43487;SDS011;29078;41.932;25.554;2022-07-01T06:30:58;7.03;;;3.83;;
43487;SDS011;29078;41.932;25.554;2022-07-01T06:33:23;6.78;;;5.20;;
43487;SDS011;29078;41.932;25.554;2022-07-01T06:35:50;6.95;;;4.90;;
43487;SDS011;29078;41.932;25.554;2022-07-01T06:38:19;6.97;;;4.50;;
43487;SDS011;29078;41.932;25.554;2022-07-01T06:40:44;5.95;;;4.30;;
43487;SDS011;29078;41.932;25.554;2022-07-01T06:43:30;10.65;;;5.72;;
43487;SDS011;29078;41.932;25.554;2022-07-01T06:45:55;5.72;;;4.38;;
43487;SDS011;29078;41.932;25.554;2022-07-01T06:48:21;10.65;;;6.30;;
43487;SDS011;29078;41.932;25.554;2022-07-01T06:50:46;7.25;;;5.15;;
43487;SDS011;29078;41.932;25.554;2022-07-01T06:53:11;24.30;;;14.10;;
43487;SDS011;29078;41.932;25.554;2022-07-01T06:55:37;13.82;;;8.18;;
43487;SDS011;29078;41.932;25.554;2022-07-01T06:58:02;8.45;;;6.40;;
43487;SDS011;29078;41.932;25.554;2022-07-01T07:00:32;7.50;;;6.07;;
43487;SDS011;29078;41.932;25.554;2022-07-01T07:02:58;7.38;;;5.03;;
43487;SDS011;29078;41.932;25.554;2022-07-01T07:05:23;7.95;;;5.65;;
43487;SDS011;29078;41.932;25.554;2022-07-01T07:07:48;7.40;;;4.78;;
43487;SDS011;29078;41.932;25.554;2022-07-01T07:10:14;5.72;;;4.05;;
43487;SDS011;29078;41.932;25.554;2022-07-01T07:12:39;7.13;;;4.03;;
43487;SDS011;29078;41.932;25.554;2022-07-01T07:15:05;7.25;;;6.03;;
43487;SDS011;29078;41.932;25.554;2022-07-01T07:17:31;5.88;;;5.30;;
43487;SDS011;29078;41.932;25.554;2022-07-01T07:19:56;5.78;;;4.93;;
43487;SDS011;29078;41.932;25.554;2022-07-01T07:22:22;9.93;;;5.80;;
43487;SDS011;29078;41.932;25.554;2022-07-01T07:24:47;5.38;;;3.72;;
43487;SDS011;29078;41.932;25.554;2022-07-01T07:27:13;9.05;;;5.20;;
43487;SDS011;29078;41.932;25.554;2022-07-01T07:29:38;4.82;;;3.72;;
43487;SDS011;29078;41.932;25.554;2022-07-01T07:32:04;7.97;;;5.68;;
43487;SDS011;29078;41.932;25.554;2022-07-01T07:34:39;8.50;;;4.65;;
43487;SDS011;29078;41.932;25.554;2022-07-01T07:37:04;7.50;;;5.78;;
43487;SDS011;29078;41.932;25.554;2022-07-01T07:39:30;7.82;;;6.25;;
43487;SDS011;29078;41.932;25.554;2022-07-01T07:41:55;8.35;;;6.78;;
43487;SDS011;29078;41.932;25.554;2022-07-01T07:44:21;12.00;;;7.90;;
43487;SDS011;29078;41.932;25.554;2022-07-01T07:46:46;9.50;;;6.70;;
43487;SDS011;29078;41.932;25.554;2022-07-01T07:49:11;7.35;;;6.28;;
43487;SDS011;29078;41.932;25.554;2022-07-01T07:51:37;7.15;;;5.95;;
43487;SDS011;29078;41.932;25.554;2022-07-01T07:54:02;10.02;;;5.75;;
43487;SDS011;29078;41.932;25.554;2022-07-01T07:56:28;9.95;;;4.20;;
43487;SDS011;29078;41.932;25.554;2022-07-01T07:58:54;6.05;;;4.40;;
43487;SDS011;29078;41.932;25.554;2022-07-01T08:01:20;6.05;;;5.38;;
43487;SDS011;29078;41.932;25.554;2022-07-01T08:03:45;7.57;;;4.80;;
43487;SDS011;29078;41.932;25.554;2022-07-01T08:06:11;12.25;;;6.47;;
43487;SDS011;29078;41.932;25.554;2022-07-01T08:08:37;9.50;;;6.25;;
43487;SDS011;29078;41.932;25.554;2022-07-01T08:11:03;5.53;;;4.47;;
43487;SDS011;29078;41.932;25.554;2022-07-01T08:13:28;7.25;;;4.78;;
43487;SDS011;29078;41.932;25.554;2022-07-01T08:15:54;8.60;;;5.30;;
43487;SDS011;29078;41.932;25.554;2022-07-01T08:18:20;7.00;;;4.32;;
43487;SDS011;29078;41.932;25.554;2022-07-01T08:20:46;7.30;;;6.15;;
43487;SDS011;29078;41.932;25.554;2022-07-01T08:23:11;9.15;;;8.23;;
43487;SDS011;29078;41.932;25.554;2022-07-01T08:25:37;6.10;;;4.32;;
43487;SDS011;29078;41.932;25.554;2022-07-01T08:28:03;8.77;;;6.72;;
43487;SDS011;29078;41.932;25.554;2022-07-01T08:30:28;7.53;;;5.93;;
43487;SDS011;29078;41.932;25.554;2022-07-01T08:32:54;5.63;;;5.13;;
43487;SDS011;29078;41.932;25.554;2022-07-01T08:35:19;5.22;;;4.50;;
43487;SDS011;29078;41.932;25.554;2022-07-01T08:37:45;7.18;;;6.30;;
43487;SDS011;29078;41.932;25.554;2022-07-01T08:40:10;6.78;;;4.50;;
43487;SDS011;29078;41.932;25.554;2022-07-01T08:42:36;6.05;;;5.45;;
43487;SDS011;29078;41.932;25.554;2022-07-01T08:45:01;4.68;;;4.00;;
43487;SDS011;29078;41.932;25.554;2022-07-01T08:47:27;7.88;;;4.43;;
43487;SDS011;29078;41.932;25.554;2022-07-01T08:49:52;5.38;;;4.75;;
43487;SDS011;29078;41.932;25.554;2022-07-01T08:52:17;8.35;;;4.28;;
43487;SDS011;29078;41.932;25.554;2022-07-01T08:54:43;9.43;;;4.53;;
43487;SDS011;29078;41.932;25.554;2022-07-01T08:57:08;6.35;;;4.35;;
43487;SDS011;29078;41.932;25.554;2022-07-01T08:59:34;8.10;;;4.50;;
43487;SDS011;29078;41.932;25.554;2022-07-01T09:02:00;7.55;;;5.28;;
43487;SDS011;29078;41.932;25.554;2022-07-01T09:04:28;10.98;;;4.45;;
43487;SDS011;29078;41.932;25.554;2022-07-01T09:07:04;6.53;;;4.60;;
43487;SDS011;29078;41.932;25.554;2022-07-01T09:09:36;5.18;;;4.28;;
43487;SDS011;29078;41.932;25.554;2022-07-01T09:12:03;5.15;;;3.83;;
43487;SDS011;29078;41.932;25.554;2022-07-01T09:14:30;5.70;;;4.93;;
43487;SDS011;29078;41.932;25.554;2022-07-01T09:16:58;7.25;;;3.72;;
43487;SDS011;29078;41.932;25.554;2022-07-01T09:19:25;12.77;;;4.00;;
43487;SDS011;29078;41.932;25.554;2022-07-01T09:21:56;5.95;;;3.65;;
43487;SDS011;29078;41.932;25.554;2022-07-01T09:26:54;4.20;;;3.50;;
43487;SDS011;29078;41.932;25.554;2022-07-01T09:29:24;5.82;;;3.88;;
43487;SDS011;29078;41.932;25.554;2022-07-01T09:31:51;5.30;;;4.80;;
43487;SDS011;29078;41.932;25.554;2022-07-01T09:34:16;6.32;;;3.75;;
43487;SDS011;29078;41.932;25.554;2022-07-01T09:36:43;5.93;;;3.80;;
43487;SDS011;29078;41.932;25.554;2022-07-01T09:39:17;4.72;;;3.85;;
43487;SDS011;29078;41.932;25.554;2022-07-01T09:41:42;5.97;;;3.67;;
43487;SDS011;29078;41.932;25.554;2022-07-01T09:44:08;5.07;;;3.92;;
43487;SDS011;29078;41.932;25.554;2022-07-01T09:46:34;4.78;;;4.30;;
43487;SDS011;29078;41.932;25.554;2022-07-01T09:49:01;4.75;;;3.85;;
43487;SDS011;29078;41.932;25.554;2022-07-01T09:51:27;5.80;;;3.58;;
43487;SDS011;29078;41.932;25.554;2022-07-01T09:53:54;5.28;;;4.43;;
43487;SDS011;29078;41.932;25.554;2022-07-01T09:56:21;6.32;;;4.50;;
43487;SDS011;29078;41.932;25.554;2022-07-01T09:58:50;5.68;;;5.18;;
43487;SDS011;29078;41.932;25.554;2022-07-01T10:01:15;7.75;;;6.28;;
43487;SDS011;29078;41.932;25.554;2022-07-01T10:03:41;6.47;;;4.38;;
43487;SDS011;29078;41.932;25.554;2022-07-01T10:12:00;5.05;;;3.42;;
43487;SDS011;29078;41.932;25.554;2022-07-01T10:14:37;6.97;;;5.70;;
43487;SDS011;29078;41.932;25.554;2022-07-01T10:17:04;4.43;;;3.55;;
43487;SDS011;29078;41.932;25.554;2022-07-01T10:19:31;6.75;;;4.35;;
43487;SDS011;29078;41.932;25.554;2022-07-01T10:24:50;6.10;;;3.80;;
43487;SDS011;29078;41.932;25.554;2022-07-01T10:27:19;4.00;;;3.50;;
43487;SDS011;29078;41.932;25.554;2022-07-01T10:29:47;4.18;;;3.42;;
43487;SDS011;29078;41.932;25.554;2022-07-01T10:34:47;6.45;;;3.50;;
43487;SDS011;29078;41.932;25.554;2022-07-01T10:37:15;5.50;;;3.85;;
43487;SDS011;29078;41.932;25.554;2022-07-01T10:42:26;9.90;;;4.43;;
43487;SDS011;29078;41.932;25.554;2022-07-01T10:47:35;8.88;;;7.38;;
43487;SDS011;29078;41.932;25.554;2022-07-01T10:50:04;7.55;;;6.80;;
43487;SDS011;29078;41.932;25.554;2022-07-01T10:52:31;6.97;;;6.28;;
43487;SDS011;29078;41.932;25.554;2022-07-01T10:54:58;8.00;;;3.78;;
43487;SDS011;29078;41.932;25.554;2022-07-01T10:57:39;6.13;;;3.50;;
43487;SDS011;29078;41.932;25.554;2022-07-01T11:02:32;3.95;;;3.60;;
43487;SDS011;29078;41.932;25.554;2022-07-01T11:04:59;5.82;;;3.92;;
43487;SDS011;29078;41.932;25.554;2022-07-01T11:07:44;11.63;;;3.38;;
43487;SDS011;29078;41.932;25.554;2022-07-01T11:10:11;4.93;;;3.67;;
43487;SDS011;29078;41.932;25.554;2022-07-01T11:12:39;4.85;;;3.80;;
43487;SDS011;29078;41.932;25.554;2022-07-01T11:15:06;3.67;;;3.15;;
43487;SDS011;29078;41.932;25.554;2022-07-01T11:17:33;4.90;;;3.60;;
43487;SDS011;29078;41.932;25.554;2022-07-01T11:19:59;4.78;;;3.90;;
43487;SDS011;29078;41.932;25.554;2022-07-01T11:22:31;7.30;;;3.30;;
43487;SDS011;29078;41.932;25.554;2022-07-01T11:27:24;4.53;;;3.33;;
43487;SDS011;29078;41.932;25.554;2022-07-01T11:29:54;5.38;;;4.07;;
43487;SDS011;29078;41.932;25.554;2022-07-01T11:32:23;3.95;;;3.10;;
43487;SDS011;29078;41.932;25.554;2022-07-01T11:34:57;5.65;;;4.95;;
43487;SDS011;29078;41.932;25.554;2022-07-01T11:37:28;5.43;;;3.65;;
43487;SDS011;29078;41.932;25.554;2022-07-01T11:40:13;6.05;;;3.92;;
43487;SDS011;29078;41.932;25.554;2022-07-01T11:42:43;5.50;;;4.10;;
43487;SDS011;29078;41.932;25.554;2022-07-01T11:45:09;5.13;;;4.00;;
43487;SDS011;29078;41.932;25.554;2022-07-01T11:47:46;7.93;;;4.55;;
43487;SDS011;29078;41.932;25.554;2022-07-01T11:50:12;6.85;;;4.25;;
43487;SDS011;29078;41.932;25.554;2022-07-01T11:52:39;8.15;;;4.15;;
43487;SDS011;29078;41.932;25.554;2022-07-01T11:55:05;5.70;;;5.05;;
43487;SDS011;29078;41.932;25.554;2022-07-01T11:57:30;12.63;;;6.40;;
43487;SDS011;29078;41.932;25.554;2022-07-01T11:59:56;6.25;;;4.25;;
43487;SDS011;29078;41.932;25.554;2022-07-01T12:02:22;11.38;;;5.20;;
43487;SDS011;29078;41.932;25.554;2022-07-01T12:04:49;4.40;;;3.90;;
43487;SDS011;29078;41.932;25.554;2022-07-01T12:07:16;7.07;;;5.20;;
43487;SDS011;29078;41.932;25.554;2022-07-01T12:09:44;4.30;;;3.90;;
43487;SDS011;29078;41.932;25.554;2022-07-01T12:12:17;5.20;;;4.03;;
43487;SDS011;29078;41.932;25.554;2022-07-01T12:14:54;5.20;;;4.20;;
43487;SDS011;29078;41.932;25.554;2022-07-01T12:17:21;6.93;;;3.58;;
43487;SDS011;29078;41.932;25.554;2022-07-01T12:19:47;7.13;;;5.80;;
43487;SDS011;29078;41.932;25.554;2022-07-01T12:22:15;5.13;;;4.68;;
43487;SDS011;29078;41.932;25.554;2022-07-01T12:24:52;8.63;;;5.50;;
43487;SDS011;29078;41.932;25.554;2022-07-01T12:27:28;6.80;;;4.20;;
43487;SDS011;29078;41.932;25.554;2022-07-01T12:29:54;5.40;;;4.82;;
43487;SDS011;29078;41.932;25.554;2022-07-01T12:32:22;4.47;;;4.07;;
43487;SDS011;29078;41.932;25.554;2022-07-01T12:34:56;4.57;;;4.03;;
43487;SDS011;29078;41.932;25.554;2022-07-01T12:37:27;5.18;;;3.95;;
43487;SDS011;29078;41.932;25.554;2022-07-01T12:39:57;6.00;;;4.10;;
43487;SDS011;29078;41.932;25.554;2022-07-01T12:42:30;14.38;;;4.60;;
43487;SDS011;29078;41.932;25.554;2022-07-01T12:45:04;13.20;;;3.97;;
43487;SDS011;29078;41.932;25.554;2022-07-01T12:47:35;6.25;;;3.97;;
43487;SDS011;29078;41.932;25.554;2022-07-01T12:50:19;5.60;;;3.63;;
43487;SDS011;29078;41.932;25.554;2022-07-01T12:55:36;6.70;;;4.53;;
43487;SDS011;29078;41.932;25.554;2022-07-01T12:58:09;4.93;;;3.92;;
43487;SDS011;29078;41.932;25.554;2022-07-01T13:00:37;6.60;;;3.60;;
43487;SDS011;29078;41.932;25.554;2022-07-01T13:03:05;9.52;;;4.50;;
43487;SDS011;29078;41.932;25.554;2022-07-01T13:05:32;20.40;;;5.88;;
43487;SDS011;29078;41.932;25.554;2022-07-01T13:07:58;21.23;;;7.68;;
43487;SDS011;29078;41.932;25.554;2022-07-01T13:10:24;17.73;;;7.15;;
43487;SDS011;29078;41.932;25.554;2022-07-01T13:12:50;22.25;;;8.10;;
43487;SDS011;29078;41.932;25.554;2022-07-01T13:15:16;16.20;;;7.85;;
43487;SDS011;29078;41.932;25.554;2022-07-01T13:17:43;13.82;;;7.35;;
43487;SDS011;29078;41.932;25.554;2022-07-01T13:20:10;12.15;;;7.15;;
43487;SDS011;29078;41.932;25.554;2022-07-01T13:22:36;11.20;;;6.80;;
43487;SDS011;29078;41.932;25.554;2022-07-01T13:25:02;9.90;;;6.45;;
43487;SDS011;29078;41.932;25.554;2022-07-01T13:27:29;8.95;;;6.15;;
43487;SDS011;29078;41.932;25.554;2022-07-01T13:29:54;8.35;;;5.80;;
43487;SDS011;29078;41.932;25.554;2022-07-01T13:32:21;9.20;;;5.22;;
43487;SDS011;29078;41.932;25.554;2022-07-01T13:34:47;7.72;;;5.40;;
43487;SDS011;29078;41.932;25.554;2022-07-01T13:37:12;8.52;;;5.45;;
43487;SDS011;29078;41.932;25.554;2022-07-01T13:39:38;6.63;;;4.93;;
43487;SDS011;29078;41.932;25.554;2022-07-01T13:42:03;6.90;;;4.80;;
43487;SDS011;29078;41.932;25.554;2022-07-01T13:44:29;5.70;;;5.20;;
43487;SDS011;29078;41.932;25.554;2022-07-01T13:46:55;8.27;;;4.35;;
43487;SDS011;29078;41.932;25.554;2022-07-01T13:49:20;6.80;;;4.60;;
43487;SDS011;29078;41.932;25.554;2022-07-01T13:51:45;5.93;;;4.72;;
43487;SDS011;29078;41.932;25.554;2022-07-01T13:54:11;6.97;;;4.25;;
43487;SDS011;29078;41.932;25.554;2022-07-01T13:56:37;6.88;;;4.15;;
43487;SDS011;29078;41.932;25.554;2022-07-01T13:59:06;6.07;;;4.20;;
43487;SDS011;29078;41.932;25.554;2022-07-01T14:01:33;7.95;;;4.50;;
43487;SDS011;29078;41.932;25.554;2022-07-01T14:03:59;7.72;;;4.60;;
43487;SDS011;29078;41.932;25.554;2022-07-01T14:06:25;9.05;;;4.20;;
43487;SDS011;29078;41.932;25.554;2022-07-01T14:08:51;8.40;;;4.25;;
43487;SDS011;29078;41.932;25.554;2022-07-01T14:11:16;8.75;;;4.32;;
43487;SDS011;29078;41.932;25.554;2022-07-01T14:13:41;6.85;;;4.00;;
43487;SDS011;29078;41.932;25.554;2022-07-01T14:16:07;3.90;;;3.45;;
43487;SDS011;29078;41.932;25.554;2022-07-01T14:18:33;6.97;;;3.88;;
43487;SDS011;29078;41.932;25.554;2022-07-01T14:21:00;9.20;;;3.83;;
43487;SDS011;29078;41.932;25.554;2022-07-01T14:23:26;4.75;;;3.85;;
43487;SDS011;29078;41.932;25.554;2022-07-01T14:25:51;6.47;;;4.00;;
43487;SDS011;29078;41.932;25.554;2022-07-01T14:28:17;4.68;;;3.97;;
43487;SDS011;29078;41.932;25.554;2022-07-01T14:30:42;6.40;;;4.10;;
43487;SDS011;29078;41.932;25.554;2022-07-01T14:33:08;7.63;;;3.97;;
43487;SDS011;29078;41.932;25.554;2022-07-01T14:35:33;7.95;;;4.40;;
43487;SDS011;29078;41.932;25.554;2022-07-01T14:37:59;6.05;;;4.10;;
43487;SDS011;29078;41.932;25.554;2022-07-01T14:40:25;7.30;;;4.35;;
43487;SDS011;29078;41.932;25.554;2022-07-01T14:42:51;6.82;;;4.40;;
43487;SDS011;29078;41.932;25.554;2022-07-01T14:45:17;5.70;;;4.32;;
43487;SDS011;29078;41.932;25.554;2022-07-01T14:47:43;4.47;;;4.03;;
43487;SDS011;29078;41.932;25.554;2022-07-01T14:50:09;7.07;;;4.70;;
43487;SDS011;29078;41.932;25.554;2022-07-01T14:52:35;5.85;;;4.70;;
43487;SDS011;29078;41.932;25.554;2022-07-01T14:55:01;4.90;;;4.40;;
43487;SDS011;29078;41.932;25.554;2022-07-01T14:57:27;5.00;;;4.55;;
43487;SDS011;29078;41.932;25.554;2022-07-01T14:59:53;4.40;;;4.00;;